CheckWX is a tool to help pilots better visualize weather data.  It is not intended as a substitute for an official pre-flight weather briefing.

09:18:38 UTC

FYWE TAF
Eros Airport
Windhoek, Namibia
TAF FYWE 230800Z 2309/2318 36008KT CAVOK BECMG 2310/2312 36014KT

Jul-23@
09:00 UTC

Jul-23 @ 09:00 UTC

Jul-23@
10:00 UTC

Jul-23 @ 10:00 UTC

TAF FYWE 230800Z 2309/2318 36008KT CAVOK
Wind
  • 360° at 8 KTS
Conditions
No significant weather
Cloud Levels
  • No significant clouds

Jul-23@
10:00 UTC

Jul-23 @ 10:00 UTC

Jul-23@
18:00 UTC

Jul-23 @ 18:00 UTC

BECMG 2310/2312 36014KT

Becoming

Becoming Conditions expected by Tue, Jul 23, 2019 @ 12:00 UTC

Wind
  • 360° at 14 KTS
Conditions
No significant weather
Cloud Levels
  • No significant clouds